Time;durP1;ratioP1;P1;durP2;ratioP2;P2;SDS_P1;SDS_P2;PMS_P1;PMS_P2;Temp;Humidity;BMP_temperature;BMP_pressure;BME280_temperature;BME280_humidity;BME280_pressure;Samples;Min_cycle;Max_cycle;Signal;HPM_P1;HPM_P2
2022/07/08 00:02:02;;;;;;;1.77;0.63;;;18.80;60.80;;;;;;5068870;28;20086;-72
2022/07/08 00:04:28;;;;;;;0.40;0.40;;;18.70;60.60;;;;;;5068960;28;20060;-72
2022/07/08 00:06:54;;;;;;;0.90;0.43;;;18.70;60.80;;;;;;5068316;28;20044;-72
2022/07/08 00:09:20;;;;;;;1.00;0.50;;;18.80;60.80;;;;;;5059184;28;20738;-66
2022/07/08 00:11:46;;;;;;;1.75;0.40;;;18.80;60.80;;;;;;5069024;28;20422;-72
2022/07/08 00:14:11;;;;;;;1.35;0.40;;;18.80;60.90;;;;;;5050805;28;20036;-72
2022/07/08 00:16:40;;;;;;;1.33;0.70;;;18.70;60.80;;;;;;5067615;28;20059;-66
2022/07/08 00:19:11;;;;;;;0.75;0.60;;;18.70;60.90;;;;;;5066708;28;20548;-72
2022/07/08 00:21:40;;;;;;;6.85;0.80;;;18.60;61.10;;;;;;5068114;28;20032;-72
2022/07/08 00:24:06;;;;;;;1.90;0.68;;;18.60;61.30;;;;;;5066005;28;20042;-72
2022/07/08 00:26:32;;;;;;;0.30;0.30;;;18.60;61.30;;;;;;5068851;28;20025;-72
2022/07/08 00:28:57;;;;;;;1.08;0.60;;;18.70;61.30;;;;;;5068857;28;20035;-72
2022/07/08 00:31:23;;;;;;;3.85;0.80;;;18.70;61.30;;;;;;5062305;28;20363;-72
2022/07/08 00:33:49;;;;;;;0.65;0.60;;;18.70;61.30;;;;;;5065844;28;20036;-72
2022/07/08 00:36:14;;;;;;;0.93;0.40;;;18.60;61.30;;;;;;5067062;28;20039;-66
2022/07/08 00:38:40;;;;;;;0.63;0.60;;;18.60;61.40;;;;;;5067414;28;20037;-72
2022/07/08 00:41:06;;;;;;;0.52;0.50;;;18.60;61.50;;;;;;5070369;28;20054;-66
2022/07/08 00:43:36;;;;;;;1.08;0.60;;;18.60;61.50;;;;;;5071338;28;20112;-72
2022/07/08 00:46:02;;;;;;;0.73;0.55;;;18.50;61.50;;;;;;5072993;28;20025;-66
2022/07/08 00:48:31;;;;;;;0.90;0.70;;;18.50;61.60;;;;;;5072384;28;20024;-72
2022/07/08 00:51:03;;;;;;;1.95;0.70;;;18.50;61.80;;;;;;5072211;28;20449;-72
2022/07/08 00:53:29;;;;;;;;;;;18.40;61.80;;;;;;5073208;28;20570;-72
2022/07/08 00:55:56;;;;;;;3.58;0.82;;;18.40;61.90;;;;;;5075591;28;19918;-72
2022/07/08 00:58:23;;;;;;;0.95;0.70;;;18.30;62.00;;;;;;5080185;28;20020;-72
2022/07/08 01:00:49;;;;;;;2.42;0.65;;;18.30;62.10;;;;;;5071916;28;20044;-72
2022/07/08 01:03:15;;;;;;;0.93;0.63;;;18.30;62.20;;;;;;5070886;28;20483;-72
2022/07/08 01:05:41;;;;;;;0.47;0.47;;;18.30;62.40;;;;;;5070815;28;20449;-66
2022/07/08 01:08:06;;;;;;;0.40;0.40;;;18.30;62.30;;;;;;5073054;28;20036;-72
2022/07/08 01:10:32;;;;;;;0.60;0.30;;;18.30;62.30;;;;;;5071598;28;20066;-66
2022/07/08 01:12:58;;;;;;;1.08;0.80;;;18.30;62.30;;;;;;5072707;28;20089;-67
2022/07/08 01:15:25;;;;;;;0.50;0.50;;;18.30;62.40;;;;;;5072530;28;20482;-66
2022/07/08 01:17:50;;;;;;;1.63;1.00;;;18.30;62.40;;;;;;5075357;28;20367;-67
2022/07/08 01:20:16;;;;;;;3.13;0.60;;;18.30;62.40;;;;;;5082657;28;20039;-67
2022/07/08 01:22:42;;;;;;;1.02;0.60;;;18.30;62.40;;;;;;5070681;28;20407;-67
2022/07/08 01:25:10;;;;;;;1.00;0.60;;;18.30;62.30;;;;;;5071811;28;20066;-66
2022/07/08 01:27:36;;;;;;;2.55;0.57;;;18.20;62.40;;;;;;5071720;28;20028;-66
2022/07/08 01:30:04;;;;;;;0.52;0.52;;;18.20;62.50;;;;;;5071964;28;20033;-68
2022/07/08 01:32:34;;;;;;;1.58;0.57;;;18.20;62.60;;;;;;5079775;28;20039;-66
2022/07/08 01:35:00;;;;;;;0.95;0.55;;;18.10;62.60;;;;;;5071857;28;20031;-67
2022/07/08 01:37:26;;;;;;;1.92;0.50;;;18.10;62.70;;;;;;5072016;28;20036;-67
2022/07/08 01:39:52;;;;;;;1.45;0.77;;;18.20;62.80;;;;;;5071846;28;20120;-66
2022/07/08 01:42:18;;;;;;;1.85;0.80;;;18.10;62.70;;;;;;5070798;28;20109;-72
2022/07/08 01:44:43;;;;;;;3.50;0.88;;;18.10;62.80;;;;;;5077018;28;20444;-72
2022/07/08 01:47:09;;;;;;;2.72;0.88;;;18.00;62.80;;;;;;5071773;28;20039;-66
2022/07/08 01:49:35;;;;;;;3.63;1.20;;;17.90;62.90;;;;;;5071647;28;20108;-72
2022/07/08 01:52:01;;;;;;;1.13;0.70;;;17.90;63.00;;;;;;5070219;28;20462;-72
2022/07/08 01:54:27;;;;;;;1.08;0.98;;;17.90;63.00;;;;;;5068308;28;20449;-72
2022/07/08 01:57:13;;;;;;;2.70;0.55;;;17.80;63.00;;;;;;5074024;28;20024;-67
2022/07/08 01:59:38;;;;;;;0.65;0.43;;;17.80;63.10;;;;;;5070944;28;20045;-72
2022/07/08 02:02:04;;;;;;;7.63;0.47;;;17.90;63.20;;;;;;5071293;28;20082;-72
2022/07/08 02:04:30;;;;;;;1.30;0.82;;;17.90;63.00;;;;;;5069335;28;20021;-72
2022/07/08 02:06:56;;;;;;;2.03;0.75;;;17.90;63.20;;;;;;5070086;28;20028;-72
2022/07/08 02:09:22;;;;;;;0.93;0.80;;;17.90;63.00;;;;;;5071196;28;20483;-72
2022/07/08 02:14:32;;;;;;;0.50;0.50;;;17.80;63.00;;;;;;5076963;28;20095;-73
2022/07/08 02:16:58;;;;;;;0.85;0.63;;;17.80;63.20;;;;;;5071561;28;20032;-72
2022/07/08 02:19:24;;;;;;;3.30;0.98;;;17.80;63.30;;;;;;5052330;28;20411;-72
2022/07/08 02:21:50;;;;;;;0.88;0.77;;;17.80;63.30;;;;;;5069061;28;20059;-73
2022/07/08 02:24:15;;;;;;;0.73;0.35;;;17.80;63.40;;;;;;5062550;28;20029;-73
2022/07/08 02:26:41;;;;;;;1.10;0.63;;;17.90;63.50;;;;;;5070018;28;20068;-66
2022/07/08 02:29:07;;;;;;;0.45;0.43;;;17.80;63.40;;;;;;5071259;28;20021;-73
2022/07/08 02:31:33;;;;;;;1.80;1.02;;;17.80;63.40;;;;;;5070713;28;20044;-72
2022/07/08 02:33:58;;;;;;;2.00;0.80;;;17.80;63.40;;;;;;5070538;28;20040;-72
2022/07/08 02:36:24;;;;;;;1.85;0.85;;;17.80;63.60;;;;;;5069601;28;20029;-72
2022/07/08 02:38:50;;;;;;;0.77;0.50;;;17.80;63.60;;;;;;5069676;28;20029;-72
2022/07/08 02:41:16;;;;;;;0.75;0.52;;;17.80;63.70;;;;;;5069106;28;20604;-72
2022/07/08 02:43:42;;;;;;;1.13;0.73;;;17.70;63.70;;;;;;5069836;28;20039;-72
2022/07/08 02:46:07;;;;;;;1.73;0.73;;;17.70;63.80;;;;;;5070876;28;20033;-72
2022/07/08 02:48:34;;;;;;;0.70;0.60;;;17.60;63.90;;;;;;5068906;28;20474;-72
2022/07/08 02:50:59;;;;;;;1.55;0.45;;;17.60;64.10;;;;;;5079854;28;20089;-66
2022/07/08 02:53:25;;;;;;;0.50;0.50;;;17.60;64.10;;;;;;5068588;28;20024;-72
2022/07/08 02:55:51;;;;;;;3.38;0.85;;;17.60;64.10;;;;;;5074033;28;20040;-72
2022/07/08 02:58:16;;;;;;;1.70;0.40;;;17.60;64.20;;;;;;5074092;28;20462;-72
2022/07/08 03:00:42;;;;;;;0.60;0.50;;;17.50;64.20;;;;;;5069196;28;20503;-72
2022/07/08 03:03:07;;;;;;;1.92;0.50;;;17.50;64.30;;;;;;5073791;28;20024;-72
2022/07/08 03:05:33;;;;;;;0.93;0.70;;;17.50;64.40;;;;;;5071728;28;20021;-72
2022/07/08 03:07:59;;;;;;;0.50;0.47;;;17.40;64.50;;;;;;5070064;28;20028;-72
2022/07/08 03:10:24;;;;;;;0.30;0.30;;;17.40;64.50;;;;;;5069204;28;20623;-66
2022/07/08 03:12:50;;;;;;;1.40;0.70;;;17.40;64.60;;;;;;5069889;28;20476;-67
2022/07/08 03:15:16;;;;;;;2.53;1.30;;;17.40;64.70;;;;;;5080848;28;20063;-66
2022/07/08 03:17:41;;;;;;;0.30;0.30;;;17.30;64.80;;;;;;5069879;28;20062;-71
2022/07/08 03:20:07;;;;;;;0.47;0.47;;;17.30;64.90;;;;;;5080026;28;20387;-66
2022/07/08 03:22:34;;;;;;;1.30;0.38;;;17.20;64.90;;;;;;5068106;28;20025;-66
2022/07/08 03:25:00;;;;;;;0.70;0.40;;;17.20;65.00;;;;;;5067942;28;20032;-66
2022/07/08 03:27:25;;;;;;;1.00;0.90;;;17.10;65.20;;;;;;5079436;28;20028;-71
2022/07/08 03:29:51;;;;;;;2.70;0.98;;;17.10;65.40;;;;;;5072248;28;20033;-72
2022/07/08 03:32:17;;;;;;;1.27;0.70;;;16.90;65.50;;;;;;5069844;28;20024;-66
2022/07/08 03:34:43;;;;;;;0.95;0.85;;;16.90;65.80;;;;;;5069351;28;20384;-72
2022/07/08 03:37:09;;;;;;;0.70;0.63;;;16.90;66.10;;;;;;5064065;28;20027;-72
2022/07/08 03:39:35;;;;;;;0.57;0.55;;;16.80;66.80;;;;;;5070344;28;20039;-71
2022/07/08 03:42:00;;;;;;;1.95;1.10;;;16.80;66.40;;;;;;5074896;28;20024;-71
2022/07/08 03:44:26;;;;;;;0.50;0.50;;;16.70;66.60;;;;;;5069037;28;20040;-72
2022/07/08 03:46:52;;;;;;;1.10;0.70;;;16.70;66.70;;;;;;5060313;28;20044;-72
2022/07/08 03:49:17;;;;;;;0.85;0.47;;;16.60;66.80;;;;;;5070094;28;20025;-71
2022/07/08 03:51:43;;;;;;;1.65;0.63;;;16.60;67.00;;;;;;5068525;28;20051;-71
2022/07/08 03:54:09;;;;;;;0.50;0.50;;;16.60;67.20;;;;;;5067674;28;20363;-66
2022/07/08 03:56:35;;;;;;;0.50;0.47;;;16.50;67.30;;;;;;5069317;28;20521;-72
2022/07/08 03:59:01;;;;;;;1.10;0.60;;;16.40;67.30;;;;;;5069402;28;20155;-72
2022/07/08 04:01:27;;;;;;;0.43;0.43;;;16.40;67.50;;;;;;5066803;28;20052;-66
2022/07/08 04:03:52;;;;;;;0.70;0.55;;;16.40;67.60;;;;;;5085974;28;20027;-71
2022/07/08 04:06:18;;;;;;;0.77;0.50;;;16.40;67.80;;;;;;5068416;28;20450;-71
2022/07/08 04:08:44;;;;;;;1.67;0.65;;;16.40;68.00;;;;;;5067436;28;20031;-72
2022/07/08 04:11:10;;;;;;;1.58;0.70;;;16.40;68.10;;;;;;5066015;28;20028;-72
2022/07/08 04:13:37;;;;;;;4.32;0.98;;;16.40;68.30;;;;;;5057990;28;20029;-72
2022/07/08 04:16:05;;;;;;;1.33;0.65;;;16.40;68.30;;;;;;5062919;28;20052;-72
2022/07/08 04:18:34;;;;;;;0.50;0.50;;;16.40;68.40;;;;;;5069650;28;20501;-72
2022/07/08 04:21:00;;;;;;;1.05;0.50;;;16.40;68.40;;;;;;5066373;28;20020;-72
2022/07/08 04:23:25;;;;;;;1.05;0.80;;;16.50;68.50;;;;;;5067233;28;20391;-72
2022/07/08 04:25:51;;;;;;;0.65;0.52;;;16.50;68.60;;;;;;5067787;28;20330;-72
2022/07/08 04:28:17;;;;;;;1.98;0.82;;;16.60;68.70;;;;;;5069652;28;20042;-72
2022/07/08 04:30:42;;;;;;;1.35;0.70;;;16.60;68.70;;;;;;5076611;28;20033;-72
2022/07/08 04:33:08;;;;;;;2.28;0.90;;;16.60;68.60;;;;;;5068182;28;20124;-72
2022/07/08 04:35:36;;;;;;;3.25;0.75;;;16.70;68.60;;;;;;5067577;28;20032;-72
2022/07/08 04:38:02;;;;;;;1.55;0.88;;;16.70;68.50;;;;;;5067120;28;20037;-66
2022/07/08 04:40:28;;;;;;;1.75;0.90;;;16.80;68.50;;;;;;5067626;28;20028;-66
2022/07/08 04:42:54;;;;;;;1.45;0.52;;;16.80;68.50;;;;;;5049933;28;20116;-72
2022/07/08 04:45:21;;;;;;;1.23;0.88;;;16.90;68.30;;;;;;5068645;28;20078;-66
2022/07/08 04:47:47;;;;;;;0.40;0.40;;;16.90;68.30;;;;;;5068129;28;20031;-66
2022/07/08 04:50:13;;;;;;;2.28;1.00;;;16.90;68.10;;;;;;5076352;28;20024;-66
2022/07/08 04:52:39;;;;;;;1.00;0.82;;;16.90;68.10;;;;;;5067276;28;20029;-72
2022/07/08 04:55:05;;;;;;;2.65;0.77;;;16.90;68.10;;;;;;5066715;28;20478;-72
2022/07/08 04:57:32;;;;;;;0.52;0.52;;;16.90;68.10;;;;;;5066143;28;20384;-72
2022/07/08 05:00:02;;;;;;;2.05;1.23;;;17.00;68.10;;;;;;5068635;28;20044;-72
2022/07/08 05:02:27;;;;;;;3.03;0.93;;;17.00;68.00;;;;;;5067125;28;20060;-72
2022/07/08 05:04:53;;;;;;;4.18;1.10;;;17.00;68.00;;;;;;5069650;28;20052;-72
2022/07/08 05:07:19;;;;;;;0.50;0.50;;;17.10;67.90;;;;;;5075967;28;20040;-72
2022/07/08 05:09:44;;;;;;;0.77;0.68;;;17.10;67.80;;;;;;5066279;28;20032;-72
2022/07/08 05:12:10;;;;;;;2.75;0.90;;;17.20;67.80;;;;;;5071613;28;20086;-66
2022/07/08 05:14:36;;;;;;;2.13;0.98;;;17.20;68.00;;;;;;5069563;28;20033;-67
2022/07/08 05:17:02;;;;;;;0.50;0.50;;;17.20;68.10;;;;;;5073307;28;20032;-66
2022/07/08 05:19:28;;;;;;;0.98;0.60;;;17.20;68.20;;;;;;5048110;28;20028;-72
2022/07/08 05:21:54;;;;;;;3.00;0.80;;;17.30;68.10;;;;;;5066967;28;20599;-72
2022/07/08 05:24:19;;;;;;;0.60;0.45;;;17.30;68.00;;;;;;5066930;28;20551;-73
2022/07/08 05:26:45;;;;;;;1.23;0.50;;;17.30;68.00;;;;;;5068043;28;20562;-73
2022/07/08 05:29:26;;;;;;;1.42;0.50;;;17.30;68.00;;;;;;5072601;28;20082;-72
2022/07/08 05:31:53;;;;;;;1.45;0.75;;;17.30;68.00;;;;;;5070378;28;20040;-67
2022/07/08 05:34:21;;;;;;;1.90;0.85;;;17.30;68.10;;;;;;5071364;28;20033;-73
2022/07/08 05:36:47;;;;;;;0.35;0.35;;;17.40;68.00;;;;;;5072021;28;20084;-72
2022/07/08 05:39:12;;;;;;;1.55;0.77;;;17.40;67.80;;;;;;5066662;28;20090;-73
2022/07/08 05:41:38;;;;;;;0.95;0.65;;;17.50;67.80;;;;;;5069676;28;20033;-72
2022/07/08 05:44:04;;;;;;;1.30;0.95;;;17.60;67.70;;;;;;5069077;28;20086;-73
2022/07/08 05:46:30;;;;;;;2.47;0.93;;;17.60;67.70;;;;;;5071994;28;20029;-73
2022/07/08 05:48:56;;;;;;;2.22;1.00;;;17.70;67.50;;;;;;5070564;28;20120;-67
2022/07/08 05:51:21;;;;;;;1.23;0.82;;;17.80;67.50;;;;;;5076826;28;20032;-73
2022/07/08 05:53:47;;;;;;;3.28;0.70;;;17.80;67.40;;;;;;5075134;28;20031;-66
2022/07/08 05:56:13;;;;;;;0.70;0.43;;;17.80;67.40;;;;;;5068494;28;20052;-73
2022/07/08 05:58:39;;;;;;;3.97;0.50;;;17.90;67.30;;;;;;5057723;28;20529;-65
2022/07/08 06:01:05;;;;;;;2.40;0.60;;;17.90;67.30;;;;;;5065096;28;20098;-66
2022/07/08 06:03:30;;;;;;;1.45;1.00;;;17.80;67.50;;;;;;5061443;28;20037;-66
2022/07/08 06:05:56;;;;;;;1.25;0.90;;;17.80;67.60;;;;;;5063656;28;20025;-66
2022/07/08 06:08:22;;;;;;;0.40;0.40;;;17.70;67.60;;;;;;5061653;28;20028;-65
2022/07/08 06:10:47;;;;;;;2.15;0.52;;;17.70;67.50;;;;;;5063611;28;20052;-66
2022/07/08 06:13:13;;;;;;;1.23;0.65;;;17.70;67.70;;;;;;5060948;28;20033;-66
2022/07/08 06:15:39;;;;;;;2.42;0.98;;;17.80;68.00;;;;;;5058163;28;20068;-67
2022/07/08 06:18:04;;;;;;;2.33;0.60;;;17.80;67.60;;;;;;5065612;28;20557;-67
2022/07/08 06:20:30;;;;;;;0.93;0.75;;;18.00;67.60;;;;;;5062336;28;20135;-66
2022/07/08 06:22:56;;;;;;;2.00;0.45;;;18.10;67.50;;;;;;5061972;28;20032;-67
2022/07/08 06:25:22;;;;;;;2.67;0.50;;;18.20;67.30;;;;;;5062116;28;20037;-66
2022/07/08 06:27:47;;;;;;;2.75;0.70;;;18.40;67.20;;;;;;5056621;28;20672;-66
2022/07/08 06:30:13;;;;;;;1.73;1.00;;;18.50;67.00;;;;;;5062703;28;20068;-67
2022/07/08 06:32:39;;;;;;;1.13;0.75;;;18.60;66.70;;;;;;5065177;28;20791;-66
2022/07/08 06:35:05;;;;;;;1.35;0.98;;;18.70;66.60;;;;;;5063609;28;20032;-74
2022/07/08 06:37:31;;;;;;;0.47;0.40;;;18.80;66.40;;;;;;5051003;28;20643;-72
2022/07/08 06:39:56;;;;;;;2.80;1.13;;;18.80;66.30;;;;;;5054002;28;20025;-72
2022/07/08 06:42:22;;;;;;;1.63;0.77;;;18.90;66.20;;;;;;5063076;28;20120;-73
2022/07/08 06:44:48;;;;;;;1.50;0.40;;;19.00;66.00;;;;;;5061965;28;20021;-73
2022/07/08 06:47:13;;;;;;;0.30;0.30;;;19.10;65.80;;;;;;5060831;28;20039;-73
2022/07/08 06:49:39;;;;;;;0.43;0.43;;;19.20;65.60;;;;;;5060256;28;20112;-74
2022/07/08 06:52:05;;;;;;;0.50;0.50;;;19.30;65.50;;;;;;5066129;28;20031;-73
2022/07/08 06:54:37;;;;;;;4.07;0.50;;;19.30;65.30;;;;;;5066965;28;20577;-73
2022/07/08 06:57:04;;;;;;;2.03;0.60;;;19.30;65.10;;;;;;5060777;28;20754;-74
2022/07/08 06:59:30;;;;;;;5.85;1.52;;;19.40;65.20;;;;;;5059511;28;20047;-73
2022/07/08 07:01:56;;;;;;;4.63;0.82;;;19.30;65.20;;;;;;5054208;28;20036;-73
2022/07/08 07:04:21;;;;;;;0.85;0.57;;;19.30;65.40;;;;;;5062370;28;20491;-66
2022/07/08 07:06:47;;;;;;;1.13;0.80;;;19.30;65.20;;;;;;5061899;28;20028;-66
2022/07/08 07:09:14;;;;;;;1.75;0.70;;;19.20;65.20;;;;;;5064021;28;20104;-67
2022/07/08 07:11:40;;;;;;;1.45;0.88;;;19.20;65.50;;;;;;5052531;28;20078;-73
2022/07/08 07:14:06;;;;;;;1.48;0.60;;;19.20;65.50;;;;;;5063464;28;20025;-74
2022/07/08 07:16:33;;;;;;;1.80;0.85;;;19.30;65.60;;;;;;5067535;28;20112;-73
2022/07/08 07:18:59;;;;;;;7.03;1.17;;;19.40;65.40;;;;;;5048656;28;20036;-73
2022/07/08 07:21:25;;;;;;;0.82;0.63;;;19.40;64.80;;;;;;5066780;28;20032;-67
2022/07/08 07:23:50;;;;;;;0.98;0.60;;;19.50;65.00;;;;;;5067129;28;20016;-67
2022/07/08 07:26:16;;;;;;;0.73;0.50;;;19.50;64.80;;;;;;5062729;28;20103;-67
2022/07/08 07:28:42;;;;;;;2.15;0.50;;;19.60;64.60;;;;;;5067033;28;20550;-66
2022/07/08 07:31:08;;;;;;;0.77;0.40;;;19.60;65.20;;;;;;5061636;28;20054;-66
2022/07/08 07:33:34;;;;;;;5.55;0.68;;;19.60;64.70;;;;;;5059286;28;20024;-66
2022/07/08 07:36:00;;;;;;;3.47;1.00;;;19.60;65.40;;;;;;5051265;28;20036;-66
2022/07/08 07:38:25;;;;;;;1.88;0.70;;;19.60;64.90;;;;;;5074649;28;20047;-66
2022/07/08 07:40:51;;;;;;;1.60;0.65;;;19.60;64.80;;;;;;5062432;28;20622;-66
2022/07/08 07:43:17;;;;;;;1.00;0.60;;;19.70;64.80;;;;;;5063549;28;20040;-66
2022/07/08 07:45:43;;;;;;;1.17;0.65;;;19.90;64.70;;;;;;5063312;28;20116;-67
2022/07/08 07:48:09;;;;;;;1.30;0.88;;;19.90;64.40;;;;;;5067988;28;20017;-67
2022/07/08 07:50:34;;;;;;;3.50;0.85;;;20.00;64.10;;;;;;5071826;28;20062;-67
2022/07/08 07:53:00;;;;;;;0.70;0.40;;;20.10;63.80;;;;;;5065611;28;20025;-66
2022/07/08 07:55:26;;;;;;;1.98;0.40;;;20.20;64.20;;;;;;5061622;28;20032;-67
2022/07/08 07:57:51;;;;;;;0.70;0.52;;;20.20;63.30;;;;;;5059681;28;20456;-67
2022/07/08 08:00:17;;;;;;;0.60;0.43;;;20.20;63.30;;;;;;5047664;28;20053;-66
2022/07/08 08:02:44;;;;;;;2.65;0.40;;;20.30;63.40;;;;;;5057120;28;20032;-67
2022/07/08 08:05:11;;;;;;;0.90;0.63;;;20.40;63.20;;;;;;5064420;28;20087;-67
2022/07/08 08:07:41;;;;;;;1.70;1.05;;;20.50;63.00;;;;;;5061365;28;20035;-66
2022/07/08 08:10:08;;;;;;;1.98;0.85;;;20.50;62.70;;;;;;5065540;28;20060;-66
2022/07/08 08:12:34;;;;;;;2.92;1.33;;;20.60;62.50;;;;;;5063303;28;20025;-66
2022/07/08 08:15:00;;;;;;;1.15;0.40;;;20.60;62.30;;;;;;5063499;28;20035;-66
2022/07/08 08:17:26;;;;;;;1.73;0.52;;;20.60;62.30;;;;;;5058468;28;20497;-67
2022/07/08 08:19:52;;;;;;;2.08;0.55;;;20.70;62.30;;;;;;5052004;28;20028;-66
2022/07/08 08:22:17;;;;;;;0.95;0.63;;;20.70;62.20;;;;;;5052741;28;20067;-67
2022/07/08 08:24:43;;;;;;;0.50;0.50;;;20.80;62.20;;;;;;5053590;28;20032;-71
2022/07/08 08:27:09;;;;;;;3.30;0.60;;;20.90;61.90;;;;;;5063906;28;20074;-72
2022/07/08 08:29:35;;;;;;;0.68;0.57;;;20.80;61.70;;;;;;5050031;28;20027;-71
2022/07/08 08:32:00;;;;;;;1.48;0.57;;;20.90;61.40;;;;;;5053034;28;20040;-75
2022/07/08 08:34:27;;;;;;;2.13;1.00;;;20.90;60.70;;;;;;5053776;28;20033;-71
2022/07/08 08:36:52;;;;;;;5.20;0.88;;;20.90;60.60;;;;;;5058107;28;20107;-70
2022/07/08 08:39:18;;;;;;;0.55;0.40;;;20.90;60.70;;;;;;5064035;28;20099;-71
2022/07/08 08:41:52;;;;;;;4.47;0.75;;;21.00;60.70;;;;;;5048259;28;20450;-72
2022/07/08 08:44:18;;;;;;;3.45;0.80;;;21.10;61.30;;;;;;5058486;28;20078;-70
2022/07/08 08:46:44;;;;;;;1.83;1.10;;;21.30;60.50;;;;;;5059928;28;20020;-71
2022/07/08 08:49:10;;;;;;;2.95;0.57;;;21.40;60.30;;;;;;5057555;28;20040;-71
2022/07/08 08:51:39;;;;;;;0.85;0.52;;;21.40;59.90;;;;;;5059033;28;20039;-72
2022/07/08 08:54:06;;;;;;;1.35;0.98;;;21.40;60.50;;;;;;5056727;28;20048;-72
2022/07/08 08:56:33;;;;;;;1.75;0.60;;;21.50;60.00;;;;;;5085536;28;20040;-72
2022/07/08 08:59:00;;;;;;;2.03;0.68;;;21.50;60.00;;;;;;5061564;28;20434;-67
2022/07/08 09:01:28;;;;;;;0.70;0.70;;;21.60;60.00;;;;;;5059410;28;20487;-67
2022/07/08 09:03:54;;;;;;;0.52;0.50;;;21.60;60.00;;;;;;5077278;28;20042;-66
2022/07/08 09:06:19;;;;;;;0.30;0.30;;;21.70;60.00;;;;;;5067463;28;20132;-72
2022/07/08 09:08:45;;;;;;;0.80;0.65;;;21.80;59.80;;;;;;5064102;28;20148;-72
2022/07/08 09:11:10;;;;;;;2.53;0.95;;;21.90;60.20;;;;;;5061364;28;20041;-72
2022/07/08 09:13:36;;;;;;;1.35;0.95;;;22.10;59.60;;;;;;5062338;28;20028;-72
2022/07/08 09:16:02;;;;;;;1.85;0.57;;;22.20;59.50;;;;;;5063697;28;20036;-72
2022/07/08 09:18:38;;;;;;;1.13;0.75;;;22.40;59.40;;;;;;5059691;28;20032;-72
2022/07/08 09:21:04;;;;;;;5.00;0.60;;;22.50;59.00;;;;;;5061804;28;20025;-73
2022/07/08 09:23:33;;;;;;;2.65;0.77;;;22.60;58.80;;;;;;5066871;28;20043;-67
2022/07/08 09:26:01;;;;;;;0.47;0.47;;;22.70;58.70;;;;;;5064730;28;20031;-67
2022/07/08 09:28:43;;;;;;;0.50;0.50;;;22.80;58.70;;;;;;5064491;28;20017;-67
2022/07/08 09:31:11;;;;;;;0.40;0.40;;;23.00;58.30;;;;;;5067974;28;20020;-67
2022/07/08 09:33:37;;;;;;;0.73;0.73;;;23.20;58.10;;;;;;5057950;28;20036;-67
2022/07/08 09:36:04;;;;;;;2.53;0.95;;;23.40;58.00;;;;;;5063992;28;20040;-67
2022/07/08 09:38:35;;;;;;;0.60;0.50;;;23.50;57.60;;;;;;5066308;28;20116;-68
2022/07/08 09:41:05;;;;;;;0.70;0.70;;;23.70;57.40;;;;;;5067101;28;20012;-67
2022/07/08 09:43:35;;;;;;;0.57;0.50;;;23.90;57.00;;;;;;5064698;28;20112;-67
2022/07/08 09:46:06;;;;;;;1.92;0.60;;;24.10;56.80;;;;;;5062200;28;20025;-72
2022/07/08 09:48:33;;;;;;;0.60;0.60;;;24.20;56.20;;;;;;5071966;28;20124;-72
2022/07/08 09:51:00;;;;;;;3.40;0.75;;;24.00;55.70;;;;;;5069352;28;20024;-72
2022/07/08 09:53:28;;;;;;;0.85;0.80;;;24.00;55.60;;;;;;5066451;28;20027;-72
2022/07/08 09:55:56;;;;;;;0.93;0.50;;;23.80;55.10;;;;;;5070392;28;20086;-72
2022/07/08 09:58:24;;;;;;;0.75;0.47;;;23.70;55.60;;;;;;5061304;28;20693;-72
2022/07/08 10:00:51;;;;;;;0.52;0.52;;;23.70;55.80;;;;;;5061344;28;20041;-72
2022/07/08 10:03:18;;;;;;;1.20;0.75;;;23.70;56.00;;;;;;5062371;28;20037;-72
2022/07/08 10:05:45;;;;;;;6.13;0.82;;;23.60;55.80;;;;;;5060393;28;20369;-72
2022/07/08 10:08:12;;;;;;;0.70;0.60;;;23.50;55.80;;;;;;5044621;28;20082;-72
2022/07/08 10:10:39;;;;;;;0.50;0.50;;;23.50;56.10;;;;;;5059724;28;20059;-72
2022/07/08 10:13:05;;;;;;;0.40;0.40;;;23.60;56.10;;;;;;5056904;28;20046;-72
2022/07/08 10:15:33;;;;;;;1.85;0.95;;;23.60;56.20;;;;;;5067457;28;20024;-72
2022/07/08 10:18:29;;;;;;;2.42;0.75;;;23.60;55.60;;;;;;5058353;28;20029;-72
2022/07/08 10:20:57;;;;;;;3.75;0.63;;;23.80;56.40;;;;;;5066338;28;20048;-72
2022/07/08 10:23:28;;;;;;;1.63;1.00;;;24.10;55.60;;;;;;5060736;28;20024;-72
2022/07/08 10:25:59;;;;;;;2.07;0.70;;;24.40;55.20;;;;;;5065354;28;20013;-73
2022/07/08 10:28:42;;;;;;;0.50;0.50;;;24.60;54.90;;;;;;5061249;28;20488;-67
2022/07/08 10:31:23;;;;;;;0.50;0.50;;;24.80;54.40;;;;;;5055994;28;20035;-67
2022/07/08 10:33:50;;;;;;;2.80;0.70;;;24.90;54.40;;;;;;5057882;28;20543;-67
2022/07/08 10:36:22;;;;;;;2.15;0.80;;;25.00;54.20;;;;;;5060594;28;20061;-67
2022/07/08 10:38:48;;;;;;;0.60;0.50;;;24.90;54.10;;;;;;5062190;28;20033;-67
2022/07/08 10:41:26;;;;;;;0.47;0.45;;;24.90;54.30;;;;;;5066572;28;20020;-72
2022/07/08 10:44:01;;;;;;;0.60;0.60;;;24.90;53.80;;;;;;5063287;28;20111;-72
2022/07/08 10:46:28;;;;;;;1.15;0.90;;;24.90;53.30;;;;;;5059867;28;20012;-67
2022/07/08 10:49:10;;;;;;;2.72;0.65;;;24.90;53.00;;;;;;5064147;28;20036;-67
2022/07/08 10:51:37;;;;;;;0.60;0.60;;;24.80;53.40;;;;;;5065317;28;20020;-67
2022/07/08 10:54:05;;;;;;;1.30;0.60;;;24.70;53.60;;;;;;5067057;28;20024;-67
2022/07/08 10:56:53;;;;;;;0.77;0.40;;;24.70;53.70;;;;;;5065668;28;20035;-67
2022/07/08 10:59:33;;;;;;;0.60;0.50;;;24.70;53.80;;;;;;5066384;28;20036;-72
2022/07/08 11:01:59;;;;;;;0.47;0.47;;;24.70;53.60;;;;;;5064557;28;20460;-72
2022/07/08 11:04:50;;;;;;;0.40;0.40;;;24.80;53.70;;;;;;5066413;28;20395;-72
2022/07/08 11:07:29;;;;;;;0.30;0.30;;;24.80;53.60;;;;;;5060836;28;20024;-72
2022/07/08 11:09:57;;;;;;;1.30;0.65;;;24.90;53.30;;;;;;5063992;28;20162;-72
2022/07/08 11:12:28;;;;;;;1.20;0.60;;;25.00;52.90;;;;;;5060462;28;20594;-72
2022/07/08 11:14:56;;;;;;;0.45;0.45;;;24.90;52.40;;;;;;5062486;28;20025;-67
2022/07/08 11:17:31;;;;;;;0.57;0.57;;;24.70;52.50;;;;;;5067648;28;20043;-72
2022/07/08 11:19:58;;;;;;;1.45;0.90;;;24.50;53.30;;;;;;5062566;28;20510;-72
2022/07/08 11:22:25;;;;;;;1.58;0.60;;;24.60;53.70;;;;;;5058246;28;20543;-68
2022/07/08 11:24:53;;;;;;;0.65;0.45;;;24.60;53.70;;;;;;5068026;28;20028;-67
2022/07/08 11:27:27;;;;;;;0.63;0.43;;;24.70;53.60;;;;;;5078154;28;20129;-67
2022/07/08 11:29:54;;;;;;;2.92;1.05;;;24.70;53.60;;;;;;5066280;28;20056;-67
2022/07/08 11:32:21;;;;;;;0.70;0.70;;;24.70;53.20;;;;;;5070405;28;20394;-66
2022/07/08 11:34:48;;;;;;;3.00;0.70;;;24.70;53.00;;;;;;5065699;28;20044;-67
2022/07/08 11:37:14;;;;;;;0.60;0.60;;;24.60;53.30;;;;;;5064268;28;20025;-67
2022/07/08 11:39:42;;;;;;;1.55;0.88;;;24.70;53.50;;;;;;5059551;28;20042;-66
2022/07/08 11:42:09;;;;;;;0.68;0.68;;;25.10;53.20;;;;;;5040408;28;20571;-66
2022/07/08 11:44:35;;;;;;;1.48;1.02;;;25.40;52.90;;;;;;5057555;28;20035;-67
2022/07/08 11:47:00;;;;;;;5.55;0.85;;;25.90;52.20;;;;;;5056885;28;20036;-66
2022/07/08 11:49:26;;;;;;;2.35;0.70;;;26.20;51.40;;;;;;5060915;28;20025;-67
2022/07/08 11:51:54;;;;;;;0.60;0.57;;;26.40;51.20;;;;;;5058800;28;20500;-66
2022/07/08 11:54:22;;;;;;;1.42;0.65;;;26.40;51.10;;;;;;5050657;28;20033;-66
2022/07/08 11:56:52;;;;;;;0.70;0.70;;;26.20;51.10;;;;;;5059017;28;20336;-73
2022/07/08 11:59:23;;;;;;;0.70;0.70;;;25.90;51.10;;;;;;5058749;28;20043;-72
2022/07/08 12:01:50;;;;;;;0.95;0.70;;;25.80;52.00;;;;;;5056194;28;20159;-72
2022/07/08 12:04:17;;;;;;;0.85;0.57;;;25.60;52.10;;;;;;5053754;28;20044;-72
2022/07/08 12:06:55;;;;;;;1.08;0.98;;;25.60;52.40;;;;;;5062254;28;20074;-73
2022/07/08 12:09:23;;;;;;;0.65;0.60;;;25.50;52.80;;;;;;5055064;28;20040;-67
2022/07/08 12:11:50;;;;;;;0.43;0.43;;;25.50;52.80;;;;;;5094482;28;20403;-67
2022/07/08 12:14:16;;;;;;;0.85;0.85;;;25.60;52.90;;;;;;5064789;28;20505;-66
2022/07/08 12:16:47;;;;;;;1.10;0.80;;;25.70;53.00;;;;;;5055833;28;20063;-68
2022/07/08 12:19:30;;;;;;;0.50;0.50;;;25.70;53.00;;;;;;5064364;28;20032;-73
2022/07/08 12:22:01;;;;;;;0.68;0.68;;;25.60;52.90;;;;;;5089724;28;20032;-72
2022/07/08 12:24:32;;;;;;;1.42;1.02;;;25.60;53.30;;;;;;5064091;28;20108;-72
2022/07/08 12:27:00;;;;;;;1.17;1.10;;;25.50;53.30;;;;;;5062896;28;20035;-72
2022/07/08 12:29:32;;;;;;;3.08;1.15;;;25.50;53.00;;;;;;5053291;28;20262;-73
2022/07/08 12:31:58;;;;;;;0.55;0.52;;;25.40;53.30;;;;;;5066010;28;20450;-74
2022/07/08 12:34:25;;;;;;;1.23;0.60;;;25.40;53.60;;;;;;5054657;28;20036;-72
2022/07/08 12:36:52;;;;;;;0.88;0.70;;;25.30;54.10;;;;;;5059164;28;20431;-72
2022/07/08 12:39:18;;;;;;;0.77;0.73;;;25.20;53.90;;;;;;5059879;28;20052;-72
2022/07/08 12:41:57;;;;;;;2.38;0.75;;;25.20;54.20;;;;;;5061187;28;20467;-72
2022/07/08 12:44:35;;;;;;;0.90;0.52;;;25.10;54.30;;;;;;5064370;28;20047;-73
2022/07/08 12:47:02;;;;;;;1.13;0.70;;;25.10;54.40;;;;;;5064762;28;20112;-73
2022/07/08 12:49:31;;;;;;;1.05;0.90;;;25.00;54.40;;;;;;5066222;28;20345;-72
2022/07/08 12:51:58;;;;;;;0.70;0.70;;;24.90;54.60;;;;;;5063933;28;20569;-73